sensor_id;sensor_type;location;lat;lon;timestamp;P1;durP1;ratioP1;P2;durP2;ratioP2
64387;SDS011;50709;52.648;4.764;2023-09-30T00:01:36;6.30;;;2.33;;
64387;SDS011;50709;52.648;4.764;2023-09-30T00:04:01;6.72;;;2.47;;
64387;SDS011;50709;52.648;4.764;2023-09-30T00:06:28;8.18;;;2.40;;
64387;SDS011;50709;52.648;4.764;2023-09-30T00:08:54;7.13;;;2.50;;
64387;SDS011;50709;52.648;4.764;2023-09-30T00:11:19;6.80;;;2.50;;
64387;SDS011;50709;52.648;4.764;2023-09-30T00:13:46;7.57;;;2.75;;
64387;SDS011;50709;52.648;4.764;2023-09-30T00:16:14;7.47;;;2.58;;
64387;SDS011;50709;52.648;4.764;2023-09-30T00:18:42;6.93;;;2.60;;
64387;SDS011;50709;52.648;4.764;2023-09-30T00:21:07;7.97;;;2.60;;
64387;SDS011;50709;52.648;4.764;2023-09-30T00:23:33;8.98;;;2.80;;
64387;SDS011;50709;52.648;4.764;2023-09-30T00:25:58;6.07;;;2.30;;
64387;SDS011;50709;52.648;4.764;2023-09-30T00:28:25;7.00;;;2.47;;
64387;SDS011;50709;52.648;4.764;2023-09-30T00:30:50;6.50;;;2.58;;
64387;SDS011;50709;52.648;4.764;2023-09-30T00:33:36;9.98;;;3.92;;
64387;SDS011;50709;52.648;4.764;2023-09-30T00:36:08;5.93;;;2.60;;
64387;SDS011;50709;52.648;4.764;2023-09-30T00:41:00;6.38;;;2.53;;
64387;SDS011;50709;52.648;4.764;2023-09-30T00:43:26;7.57;;;2.40;;
64387;SDS011;50709;52.648;4.764;2023-09-30T00:45:52;5.63;;;2.45;;
64387;SDS011;50709;52.648;4.764;2023-09-30T00:48:42;6.10;;;2.65;;
64387;SDS011;50709;52.648;4.764;2023-09-30T00:51:09;8.07;;;2.45;;
64387;SDS011;50709;52.648;4.764;2023-09-30T00:53:35;6.05;;;2.70;;
64387;SDS011;50709;52.648;4.764;2023-09-30T00:56:00;7.05;;;2.83;;
64387;SDS011;50709;52.648;4.764;2023-09-30T00:58:27;5.47;;;2.45;;
64387;SDS011;50709;52.648;4.764;2023-09-30T01:00:55;6.35;;;2.22;;
64387;SDS011;50709;52.648;4.764;2023-09-30T01:03:22;5.28;;;2.28;;
64387;SDS011;50709;52.648;4.764;2023-09-30T01:05:48;6.95;;;2.63;;
64387;SDS011;50709;52.648;4.764;2023-09-30T01:08:14;6.18;;;2.78;;
64387;SDS011;50709;52.648;4.764;2023-09-30T01:10:41;7.97;;;2.83;;
64387;SDS011;50709;52.648;4.764;2023-09-30T01:13:07;6.88;;;2.45;;
64387;SDS011;50709;52.648;4.764;2023-09-30T01:15:32;5.88;;;2.70;;
64387;SDS011;50709;52.648;4.764;2023-09-30T01:17:58;6.15;;;2.63;;
64387;SDS011;50709;52.648;4.764;2023-09-30T01:20:23;7.05;;;2.60;;
64387;SDS011;50709;52.648;4.764;2023-09-30T01:22:49;11.82;;;2.60;;
64387;SDS011;50709;52.648;4.764;2023-09-30T01:25:15;4.60;;;2.33;;
64387;SDS011;50709;52.648;4.764;2023-09-30T01:27:41;7.80;;;2.58;;
64387;SDS011;50709;52.648;4.764;2023-09-30T01:30:06;5.10;;;2.70;;
64387;SDS011;50709;52.648;4.764;2023-09-30T01:32:36;5.28;;;2.30;;
64387;SDS011;50709;52.648;4.764;2023-09-30T01:35:02;7.00;;;2.40;;
64387;SDS011;50709;52.648;4.764;2023-09-30T01:37:27;5.40;;;2.50;;
64387;SDS011;50709;52.648;4.764;2023-09-30T01:39:54;5.00;;;2.35;;
64387;SDS011;50709;52.648;4.764;2023-09-30T01:42:20;5.88;;;2.05;;
64387;SDS011;50709;52.648;4.764;2023-09-30T01:44:46;8.43;;;2.50;;
64387;SDS011;50709;52.648;4.764;2023-09-30T01:47:11;5.88;;;2.40;;
64387;SDS011;50709;52.648;4.764;2023-09-30T01:49:37;5.95;;;2.67;;
64387;SDS011;50709;52.648;4.764;2023-09-30T01:52:03;5.05;;;2.60;;
64387;SDS011;50709;52.648;4.764;2023-09-30T01:54:30;5.38;;;2.60;;
64387;SDS011;50709;52.648;4.764;2023-09-30T01:56:55;5.78;;;2.40;;
64387;SDS011;50709;52.648;4.764;2023-09-30T01:59:21;5.60;;;2.38;;
64387;SDS011;50709;52.648;4.764;2023-09-30T02:01:49;7.93;;;2.72;;
64387;SDS011;50709;52.648;4.764;2023-09-30T02:04:14;9.18;;;2.60;;
64387;SDS011;50709;52.648;4.764;2023-09-30T02:06:40;7.13;;;2.63;;
64387;SDS011;50709;52.648;4.764;2023-09-30T02:09:06;6.30;;;2.42;;
64387;SDS011;50709;52.648;4.764;2023-09-30T02:11:33;5.47;;;2.47;;
64387;SDS011;50709;52.648;4.764;2023-09-30T02:13:59;6.63;;;2.88;;
64387;SDS011;50709;52.648;4.764;2023-09-30T02:16:25;5.57;;;2.70;;
64387;SDS011;50709;52.648;4.764;2023-09-30T02:18:51;4.30;;;2.45;;
64387;SDS011;50709;52.648;4.764;2023-09-30T02:21:18;5.75;;;2.90;;
64387;SDS011;50709;52.648;4.764;2023-09-30T02:23:43;9.25;;;2.80;;
64387;SDS011;50709;52.648;4.764;2023-09-30T02:26:14;8.05;;;2.85;;
64387;SDS011;50709;52.648;4.764;2023-09-30T02:28:40;5.40;;;2.65;;
64387;SDS011;50709;52.648;4.764;2023-09-30T02:31:05;6.18;;;2.90;;
64387;SDS011;50709;52.648;4.764;2023-09-30T02:33:32;7.28;;;2.50;;
64387;SDS011;50709;52.648;4.764;2023-09-30T02:36:00;7.22;;;2.63;;
64387;SDS011;50709;52.648;4.764;2023-09-30T02:38:26;4.78;;;2.83;;
64387;SDS011;50709;52.648;4.764;2023-09-30T02:40:53;6.32;;;2.90;;
64387;SDS011;50709;52.648;4.764;2023-09-30T02:43:20;7.40;;;2.70;;
64387;SDS011;50709;52.648;4.764;2023-09-30T02:45:46;5.55;;;2.70;;
64387;SDS011;50709;52.648;4.764;2023-09-30T02:48:13;5.18;;;2.65;;
64387;SDS011;50709;52.648;4.764;2023-09-30T02:51:18;5.85;;;2.60;;
64387;SDS011;50709;52.648;4.764;2023-09-30T02:53:43;6.45;;;2.67;;
64387;SDS011;50709;52.648;4.764;2023-09-30T02:56:09;7.70;;;2.53;;
64387;SDS011;50709;52.648;4.764;2023-09-30T02:58:35;5.72;;;2.47;;
64387;SDS011;50709;52.648;4.764;2023-09-30T03:01:01;8.68;;;2.50;;
64387;SDS011;50709;52.648;4.764;2023-09-30T03:03:26;5.00;;;2.60;;
64387;SDS011;50709;52.648;4.764;2023-09-30T03:05:52;4.78;;;2.63;;
64387;SDS011;50709;52.648;4.764;2023-09-30T03:08:19;4.32;;;2.45;;
64387;SDS011;50709;52.648;4.764;2023-09-30T03:10:45;7.43;;;2.83;;
64387;SDS011;50709;52.648;4.764;2023-09-30T03:13:11;5.55;;;2.70;;
64387;SDS011;50709;52.648;4.764;2023-09-30T03:15:37;7.18;;;2.70;;
64387;SDS011;50709;52.648;4.764;2023-09-30T03:18:03;4.85;;;2.90;;
64387;SDS011;50709;52.648;4.764;2023-09-30T03:20:30;7.85;;;3.00;;
64387;SDS011;50709;52.648;4.764;2023-09-30T03:22:57;6.82;;;2.55;;
64387;SDS011;50709;52.648;4.764;2023-09-30T03:25:23;5.22;;;2.47;;
64387;SDS011;50709;52.648;4.764;2023-09-30T03:27:48;5.22;;;2.70;;
64387;SDS011;50709;52.648;4.764;2023-09-30T03:30:14;6.50;;;2.60;;
64387;SDS011;50709;52.648;4.764;2023-09-30T03:32:41;6.90;;;2.40;;
64387;SDS011;50709;52.648;4.764;2023-09-30T03:35:10;5.55;;;2.70;;
64387;SDS011;50709;52.648;4.764;2023-09-30T03:40:06;4.53;;;2.55;;
64387;SDS011;50709;52.648;4.764;2023-09-30T03:42:42;7.85;;;3.00;;
64387;SDS011;50709;52.648;4.764;2023-09-30T03:45:08;4.72;;;2.67;;
64387;SDS011;50709;52.648;4.764;2023-09-30T03:47:35;5.43;;;2.60;;
64387;SDS011;50709;52.648;4.764;2023-09-30T03:50:03;6.90;;;2.85;;
64387;SDS011;50709;52.648;4.764;2023-09-30T03:52:30;5.97;;;3.00;;
64387;SDS011;50709;52.648;4.764;2023-09-30T03:54:58;5.25;;;2.45;;
64387;SDS011;50709;52.648;4.764;2023-09-30T03:57:24;5.65;;;2.65;;
64387;SDS011;50709;52.648;4.764;2023-09-30T03:59:50;6.25;;;2.63;;
64387;SDS011;50709;52.648;4.764;2023-09-30T04:02:15;7.25;;;3.10;;
64387;SDS011;50709;52.648;4.764;2023-09-30T04:05:00;5.43;;;2.67;;
64387;SDS011;50709;52.648;4.764;2023-09-30T04:07:46;7.13;;;3.05;;
64387;SDS011;50709;52.648;4.764;2023-09-30T04:10:11;6.35;;;3.00;;
64387;SDS011;50709;52.648;4.764;2023-09-30T04:12:37;6.32;;;2.70;;
64387;SDS011;50709;52.648;4.764;2023-09-30T04:15:02;5.55;;;2.97;;
64387;SDS011;50709;52.648;4.764;2023-09-30T04:17:31;6.47;;;2.97;;
64387;SDS011;50709;52.648;4.764;2023-09-30T04:19:57;7.28;;;2.78;;
64387;SDS011;50709;52.648;4.764;2023-09-30T04:22:23;7.60;;;2.80;;
64387;SDS011;50709;52.648;4.764;2023-09-30T04:24:50;7.43;;;2.80;;
64387;SDS011;50709;52.648;4.764;2023-09-30T04:27:16;5.28;;;2.80;;
64387;SDS011;50709;52.648;4.764;2023-09-30T04:29:42;8.18;;;3.10;;
64387;SDS011;50709;52.648;4.764;2023-09-30T04:32:09;7.45;;;3.03;;
64387;SDS011;50709;52.648;4.764;2023-09-30T04:34:34;5.65;;;2.95;;
64387;SDS011;50709;52.648;4.764;2023-09-30T04:37:00;8.15;;;3.00;;
64387;SDS011;50709;52.648;4.764;2023-09-30T04:39:25;8.98;;;3.10;;
64387;SDS011;50709;52.648;4.764;2023-09-30T04:41:51;9.20;;;2.90;;
64387;SDS011;50709;52.648;4.764;2023-09-30T04:44:16;5.70;;;2.88;;
64387;SDS011;50709;52.648;4.764;2023-09-30T04:46:43;6.72;;;3.10;;
64387;SDS011;50709;52.648;4.764;2023-09-30T04:49:12;5.45;;;2.97;;
64387;SDS011;50709;52.648;4.764;2023-09-30T04:51:39;6.85;;;3.10;;
64387;SDS011;50709;52.648;4.764;2023-09-30T04:54:05;5.95;;;2.85;;
64387;SDS011;50709;52.648;4.764;2023-09-30T04:56:33;7.70;;;2.90;;
64387;SDS011;50709;52.648;4.764;2023-09-30T04:59:03;8.23;;;3.13;;
64387;SDS011;50709;52.648;4.764;2023-09-30T05:01:29;8.77;;;3.25;;
64387;SDS011;50709;52.648;4.764;2023-09-30T05:03:54;8.98;;;3.40;;
64387;SDS011;50709;52.648;4.764;2023-09-30T05:06:20;5.90;;;2.75;;
64387;SDS011;50709;52.648;4.764;2023-09-30T05:08:46;7.93;;;3.13;;
64387;SDS011;50709;52.648;4.764;2023-09-30T05:11:12;6.50;;;3.35;;
64387;SDS011;50709;52.648;4.764;2023-09-30T05:13:38;5.82;;;2.78;;
64387;SDS011;50709;52.648;4.764;2023-09-30T05:16:23;6.40;;;3.30;;
64387;SDS011;50709;52.648;4.764;2023-09-30T05:18:50;6.68;;;3.35;;
64387;SDS011;50709;52.648;4.764;2023-09-30T05:21:16;5.68;;;2.90;;
64387;SDS011;50709;52.648;4.764;2023-09-30T05:23:41;6.97;;;3.35;;
64387;SDS011;50709;52.648;4.764;2023-09-30T05:26:27;7.70;;;3.17;;
64387;SDS011;50709;52.648;4.764;2023-09-30T05:28:53;6.28;;;3.20;;
64387;SDS011;50709;52.648;4.764;2023-09-30T05:31:40;8.20;;;2.92;;
64387;SDS011;50709;52.648;4.764;2023-09-30T05:34:05;7.25;;;3.22;;
64387;SDS011;50709;52.648;4.764;2023-09-30T05:36:31;7.30;;;3.53;;
64387;SDS011;50709;52.648;4.764;2023-09-30T05:38:56;6.78;;;3.28;;
64387;SDS011;50709;52.648;4.764;2023-09-30T05:41:22;5.40;;;2.90;;
64387;SDS011;50709;52.648;4.764;2023-09-30T05:43:48;7.25;;;2.90;;
64387;SDS011;50709;52.648;4.764;2023-09-30T05:46:14;7.28;;;3.20;;
64387;SDS011;50709;52.648;4.764;2023-09-30T05:48:40;6.78;;;3.22;;
64387;SDS011;50709;52.648;4.764;2023-09-30T05:51:06;6.90;;;3.08;;
64387;SDS011;50709;52.648;4.764;2023-09-30T05:53:32;6.97;;;3.13;;
64387;SDS011;50709;52.648;4.764;2023-09-30T05:56:17;7.13;;;3.22;;
64387;SDS011;50709;52.648;4.764;2023-09-30T05:59:24;5.30;;;3.50;;
64387;SDS011;50709;52.648;4.764;2023-09-30T06:01:51;7.05;;;3.38;;
64387;SDS011;50709;52.648;4.764;2023-09-30T06:04:18;9.57;;;3.60;;
64387;SDS011;50709;52.648;4.764;2023-09-30T06:07:04;7.15;;;3.30;;
64387;SDS011;50709;52.648;4.764;2023-09-30T06:09:29;9.00;;;3.88;;
64387;SDS011;50709;52.648;4.764;2023-09-30T06:11:56;7.68;;;3.63;;
64387;SDS011;50709;52.648;4.764;2023-09-30T06:14:21;8.65;;;4.18;;
64387;SDS011;50709;52.648;4.764;2023-09-30T06:16:47;7.95;;;4.03;;
64387;SDS011;50709;52.648;4.764;2023-09-30T06:19:14;8.57;;;3.88;;
64387;SDS011;50709;52.648;4.764;2023-09-30T06:21:39;6.95;;;3.72;;
64387;SDS011;50709;52.648;4.764;2023-09-30T06:24:05;6.97;;;3.75;;
64387;SDS011;50709;52.648;4.764;2023-09-30T06:26:30;6.53;;;3.75;;
64387;SDS011;50709;52.648;4.764;2023-09-30T06:28:57;8.15;;;3.85;;
64387;SDS011;50709;52.648;4.764;2023-09-30T06:31:23;8.23;;;4.47;;
64387;SDS011;50709;52.648;4.764;2023-09-30T06:33:49;8.30;;;3.65;;
64387;SDS011;50709;52.648;4.764;2023-09-30T06:36:14;6.40;;;3.83;;
64387;SDS011;50709;52.648;4.764;2023-09-30T06:38:40;9.15;;;4.13;;
64387;SDS011;50709;52.648;4.764;2023-09-30T06:41:14;8.43;;;3.97;;
64387;SDS011;50709;52.648;4.764;2023-09-30T06:43:40;11.02;;;3.95;;
64387;SDS011;50709;52.648;4.764;2023-09-30T06:46:06;9.32;;;4.13;;
64387;SDS011;50709;52.648;4.764;2023-09-30T06:48:35;7.97;;;4.35;;
64387;SDS011;50709;52.648;4.764;2023-09-30T06:51:02;6.80;;;4.00;;
64387;SDS011;50709;52.648;4.764;2023-09-30T06:53:28;13.35;;;4.45;;
64387;SDS011;50709;52.648;4.764;2023-09-30T06:55:54;7.93;;;4.07;;
64387;SDS011;50709;52.648;4.764;2023-09-30T06:58:40;7.70;;;4.05;;
64387;SDS011;50709;52.648;4.764;2023-09-30T07:01:05;8.32;;;4.20;;
64387;SDS011;50709;52.648;4.764;2023-09-30T07:03:33;8.50;;;4.10;;
64387;SDS011;50709;52.648;4.764;2023-09-30T07:06:23;9.10;;;4.22;;
64387;SDS011;50709;52.648;4.764;2023-09-30T07:08:49;10.02;;;4.53;;
64387;SDS011;50709;52.648;4.764;2023-09-30T07:11:15;10.82;;;4.38;;
64387;SDS011;50709;52.648;4.764;2023-09-30T07:13:40;8.30;;;3.92;;
64387;SDS011;50709;52.648;4.764;2023-09-30T07:16:07;9.18;;;4.30;;
64387;SDS011;50709;52.648;4.764;2023-09-30T07:18:52;7.38;;;3.75;;
64387;SDS011;50709;52.648;4.764;2023-09-30T07:21:20;8.80;;;3.90;;
64387;SDS011;50709;52.648;4.764;2023-09-30T07:23:46;8.27;;;3.83;;
64387;SDS011;50709;52.648;4.764;2023-09-30T07:26:13;9.95;;;4.00;;
64387;SDS011;50709;52.648;4.764;2023-09-30T07:28:39;8.68;;;3.90;;
64387;SDS011;50709;52.648;4.764;2023-09-30T07:31:05;8.15;;;3.80;;
64387;SDS011;50709;52.648;4.764;2023-09-30T07:33:30;8.57;;;4.05;;
64387;SDS011;50709;52.648;4.764;2023-09-30T07:35:56;7.60;;;4.57;;
64387;SDS011;50709;52.648;4.764;2023-09-30T07:38:22;9.07;;;3.90;;
64387;SDS011;50709;52.648;4.764;2023-09-30T07:40:48;8.18;;;3.95;;
64387;SDS011;50709;52.648;4.764;2023-09-30T07:43:14;8.95;;;4.28;;
64387;SDS011;50709;52.648;4.764;2023-09-30T07:45:40;8.77;;;4.13;;
64387;SDS011;50709;52.648;4.764;2023-09-30T07:48:06;9.65;;;3.72;;
64387;SDS011;50709;52.648;4.764;2023-09-30T07:50:34;7.25;;;3.92;;
64387;SDS011;50709;52.648;4.764;2023-09-30T07:53:00;6.75;;;3.90;;
64387;SDS011;50709;52.648;4.764;2023-09-30T07:55:26;7.20;;;3.70;;
64387;SDS011;50709;52.648;4.764;2023-09-30T07:57:51;6.57;;;3.88;;
64387;SDS011;50709;52.648;4.764;2023-09-30T08:00:17;9.25;;;3.80;;
64387;SDS011;50709;52.648;4.764;2023-09-30T08:02:43;10.68;;;3.30;;
64387;SDS011;50709;52.648;4.764;2023-09-30T08:05:09;11.77;;;4.00;;
64387;SDS011;50709;52.648;4.764;2023-09-30T08:07:35;9.75;;;4.00;;
64387;SDS011;50709;52.648;4.764;2023-09-30T08:10:02;7.75;;;3.30;;
64387;SDS011;50709;52.648;4.764;2023-09-30T08:12:30;8.98;;;3.58;;
64387;SDS011;50709;52.648;4.764;2023-09-30T08:14:55;4.90;;;3.00;;
64387;SDS011;50709;52.648;4.764;2023-09-30T08:17:21;10.25;;;3.50;;
64387;SDS011;50709;52.648;4.764;2023-09-30T08:19:47;8.73;;;4.32;;
64387;SDS011;50709;52.648;4.764;2023-09-30T08:22:13;6.32;;;3.00;;
64387;SDS011;50709;52.648;4.764;2023-09-30T08:24:39;6.60;;;2.90;;
64387;SDS011;50709;52.648;4.764;2023-09-30T08:27:04;7.20;;;2.95;;
64387;SDS011;50709;52.648;4.764;2023-09-30T08:29:33;9.05;;;2.80;;
64387;SDS011;50709;52.648;4.764;2023-09-30T08:32:19;7.00;;;2.92;;
64387;SDS011;50709;52.648;4.764;2023-09-30T08:34:45;8.25;;;3.40;;
64387;SDS011;50709;52.648;4.764;2023-09-30T08:37:10;5.72;;;2.67;;
64387;SDS011;50709;52.648;4.764;2023-09-30T08:39:39;9.18;;;3.00;;
64387;SDS011;50709;52.648;4.764;2023-09-30T08:42:08;10.95;;;3.65;;
64387;SDS011;50709;52.648;4.764;2023-09-30T08:44:37;8.13;;;3.40;;
64387;SDS011;50709;52.648;4.764;2023-09-30T08:47:05;10.93;;;3.67;;
64387;SDS011;50709;52.648;4.764;2023-09-30T08:49:33;9.23;;;3.28;;
64387;SDS011;50709;52.648;4.764;2023-09-30T08:52:00;5.68;;;2.85;;
64387;SDS011;50709;52.648;4.764;2023-09-30T08:54:27;6.32;;;2.70;;
64387;SDS011;50709;52.648;4.764;2023-09-30T08:56:52;3.78;;;2.20;;
64387;SDS011;50709;52.648;4.764;2023-09-30T08:59:18;3.08;;;1.92;;
64387;SDS011;50709;52.648;4.764;2023-09-30T09:01:44;4.30;;;1.90;;
64387;SDS011;50709;52.648;4.764;2023-09-30T09:04:10;5.53;;;2.17;;
64387;SDS011;50709;52.648;4.764;2023-09-30T09:06:36;4.97;;;1.80;;
64387;SDS011;50709;52.648;4.764;2023-09-30T09:09:17;8.18;;;2.38;;
64387;SDS011;50709;52.648;4.764;2023-09-30T09:11:44;4.22;;;1.88;;
64387;SDS011;50709;52.648;4.764;2023-09-30T09:14:11;5.22;;;2.30;;
64387;SDS011;50709;52.648;4.764;2023-09-30T09:16:50;5.57;;;3.33;;
64387;SDS011;50709;52.648;4.764;2023-09-30T09:19:20;7.68;;;3.70;;
64387;SDS011;50709;52.648;4.764;2023-09-30T09:21:55;7.10;;;2.67;;
64387;SDS011;50709;52.648;4.764;2023-09-30T09:24:28;5.50;;;2.67;;
64387;SDS011;50709;52.648;4.764;2023-09-30T09:27:04;6.55;;;2.55;;
64387;SDS011;50709;52.648;4.764;2023-09-30T09:29:31;6.30;;;3.83;;
64387;SDS011;50709;52.648;4.764;2023-09-30T09:34:59;6.25;;;2.15;;
64387;SDS011;50709;52.648;4.764;2023-09-30T09:37:26;6.07;;;2.20;;
64387;SDS011;50709;52.648;4.764;2023-09-30T09:39:53;8.75;;;2.20;;
64387;SDS011;50709;52.648;4.764;2023-09-30T09:42:28;8.80;;;2.40;;
64387;SDS011;50709;52.648;4.764;2023-09-30T09:44:56;5.13;;;2.05;;
64387;SDS011;50709;52.648;4.764;2023-09-30T09:47:25;5.03;;;1.85;;
64387;SDS011;50709;52.648;4.764;2023-09-30T09:49:52;5.90;;;2.08;;
64387;SDS011;50709;52.648;4.764;2023-09-30T09:52:19;4.55;;;1.67;;
64387;SDS011;50709;52.648;4.764;2023-09-30T09:54:45;4.20;;;2.10;;
64387;SDS011;50709;52.648;4.764;2023-09-30T09:57:13;6.97;;;2.00;;
64387;SDS011;50709;52.648;4.764;2023-09-30T09:59:42;6.68;;;2.15;;
64387;SDS011;50709;52.648;4.764;2023-09-30T10:02:12;6.72;;;2.65;;
64387;SDS011;50709;52.648;4.764;2023-09-30T10:04:43;9.52;;;2.30;;
64387;SDS011;50709;52.648;4.764;2023-09-30T10:07:26;4.85;;;2.03;;
64387;SDS011;50709;52.648;4.764;2023-09-30T10:09:54;5.03;;;1.80;;
64387;SDS011;50709;52.648;4.764;2023-09-30T10:12:23;6.55;;;1.83;;
64387;SDS011;50709;52.648;4.764;2023-09-30T10:14:51;7.20;;;2.70;;
64387;SDS011;50709;52.648;4.764;2023-09-30T10:17:17;4.28;;;1.80;;
64387;SDS011;50709;52.648;4.764;2023-09-30T10:20:03;6.47;;;1.90;;
64387;SDS011;50709;52.648;4.764;2023-09-30T10:22:31;5.28;;;2.30;;
64387;SDS011;50709;52.648;4.764;2023-09-30T10:24:58;6.72;;;2.28;;
64387;SDS011;50709;52.648;4.764;2023-09-30T10:28:03;4.33;;;1.83;;
64387;SDS011;50709;52.648;4.764;2023-09-30T10:31:11;3.53;;;1.80;;
64387;SDS011;50709;52.648;4.764;2023-09-30T10:36:30;5.60;;;2.05;;
64387;SDS011;50709;52.648;4.764;2023-09-30T10:39:02;4.65;;;2.05;;
64387;SDS011;50709;52.648;4.764;2023-09-30T10:49:46;6.85;;;2.17;;
64387;SDS011;50709;52.648;4.764;2023-09-30T10:52:12;4.07;;;2.00;;
64387;SDS011;50709;52.648;4.764;2023-09-30T10:54:48;4.25;;;2.10;;
64387;SDS011;50709;52.648;4.764;2023-09-30T10:57:15;8.57;;;2.45;;
64387;SDS011;50709;52.648;4.764;2023-09-30T11:00:11;4.18;;;2.03;;
64387;SDS011;50709;52.648;4.764;2023-09-30T11:02:48;5.22;;;1.80;;
64387;SDS011;50709;52.648;4.764;2023-09-30T11:05:15;6.45;;;2.08;;
64387;SDS011;50709;52.648;4.764;2023-09-30T11:07:43;4.78;;;1.85;;
64387;SDS011;50709;52.648;4.764;2023-09-30T11:10:17;5.55;;;2.00;;
64387;SDS011;50709;52.648;4.764;2023-09-30T11:12:56;5.15;;;1.90;;
64387;SDS011;50709;52.648;4.764;2023-09-30T11:15:22;5.55;;;2.15;;
64387;SDS011;50709;52.648;4.764;2023-09-30T11:17:49;5.22;;;2.10;;
64387;SDS011;50709;52.648;4.764;2023-09-30T11:20:16;5.57;;;2.13;;
64387;SDS011;50709;52.648;4.764;2023-09-30T11:22:43;4.20;;;1.80;;
64387;SDS011;50709;52.648;4.764;2023-09-30T11:25:16;4.18;;;1.98;;
64387;SDS011;50709;52.648;4.764;2023-09-30T11:27:44;5.95;;;1.92;;
64387;SDS011;50709;52.648;4.764;2023-09-30T11:30:10;4.05;;;1.67;;
64387;SDS011;50709;52.648;4.764;2023-09-30T11:32:37;5.60;;;1.83;;
64387;SDS011;50709;52.648;4.764;2023-09-30T11:35:04;4.70;;;2.10;;
64387;SDS011;50709;52.648;4.764;2023-09-30T11:37:34;5.88;;;2.40;;
64387;SDS011;50709;52.648;4.764;2023-09-30T11:40:12;6.35;;;2.10;;
64387;SDS011;50709;52.648;4.764;2023-09-30T11:45:33;4.32;;;1.80;;
64387;SDS011;50709;52.648;4.764;2023-09-30T11:47:59;6.85;;;2.30;;
64387;SDS011;50709;52.648;4.764;2023-09-30T11:50:24;7.78;;;2.13;;
64387;SDS011;50709;52.648;4.764;2023-09-30T11:52:50;7.55;;;2.08;;
64387;SDS011;50709;52.648;4.764;2023-09-30T11:55:15;8.38;;;2.33;;
64387;SDS011;50709;52.648;4.764;2023-09-30T11:58:01;5.38;;;1.90;;
64387;SDS011;50709;52.648;4.764;2023-09-30T12:00:28;9.38;;;2.65;;
64387;SDS011;50709;52.648;4.764;2023-09-30T12:02:56;3.95;;;2.10;;
64387;SDS011;50709;52.648;4.764;2023-09-30T12:05:42;6.30;;;2.10;;
64387;SDS011;50709;52.648;4.764;2023-09-30T12:08:10;7.72;;;1.67;;
64387;SDS011;50709;52.648;4.764;2023-09-30T12:10:36;8.57;;;1.90;;
64387;SDS011;50709;52.648;4.764;2023-09-30T12:13:04;5.45;;;1.80;;
64387;SDS011;50709;52.648;4.764;2023-09-30T12:15:30;6.25;;;2.15;;
64387;SDS011;50709;52.648;4.764;2023-09-30T12:18:18;4.78;;;2.03;;
64387;SDS011;50709;52.648;4.764;2023-09-30T12:20:48;7.13;;;2.05;;
64387;SDS011;50709;52.648;4.764;2023-09-30T12:23:15;5.15;;;2.30;;
64387;SDS011;50709;52.648;4.764;2023-09-30T12:25:40;5.88;;;2.13;;
64387;SDS011;50709;52.648;4.764;2023-09-30T12:28:07;6.53;;;2.45;;
64387;SDS011;50709;52.648;4.764;2023-09-30T12:30:32;3.10;;;1.77;;
64387;SDS011;50709;52.648;4.764;2023-09-30T12:32:58;5.68;;;2.00;;
64387;SDS011;50709;52.648;4.764;2023-09-30T12:35:23;6.90;;;2.00;;
64387;SDS011;50709;52.648;4.764;2023-09-30T12:37:50;5.22;;;1.90;;
64387;SDS011;50709;52.648;4.764;2023-09-30T12:40:15;8.75;;;2.83;;
64387;SDS011;50709;52.648;4.764;2023-09-30T12:42:42;7.35;;;2.25;;
64387;SDS011;50709;52.648;4.764;2023-09-30T12:45:08;5.20;;;2.03;;
64387;SDS011;50709;52.648;4.764;2023-09-30T12:47:34;5.20;;;1.95;;
64387;SDS011;50709;52.648;4.764;2023-09-30T12:50:00;5.38;;;2.00;;
64387;SDS011;50709;52.648;4.764;2023-09-30T12:52:25;7.20;;;1.90;;
64387;SDS011;50709;52.648;4.764;2023-09-30T12:54:51;5.35;;;2.00;;
64387;SDS011;50709;52.648;4.764;2023-09-30T12:57:16;4.93;;;2.05;;
64387;SDS011;50709;52.648;4.764;2023-09-30T12:59:46;6.30;;;2.78;;
64387;SDS011;50709;52.648;4.764;2023-09-30T13:02:12;5.82;;;2.45;;
64387;SDS011;50709;52.648;4.764;2023-09-30T13:04:38;4.55;;;1.80;;
64387;SDS011;50709;52.648;4.764;2023-09-30T13:07:09;4.25;;;2.10;;
64387;SDS011;50709;52.648;4.764;2023-09-30T13:09:35;6.70;;;3.08;;
64387;SDS011;50709;52.648;4.764;2023-09-30T13:12:04;9.05;;;2.63;;
64387;SDS011;50709;52.648;4.764;2023-09-30T13:14:30;4.55;;;1.92;;
64387;SDS011;50709;52.648;4.764;2023-09-30T13:16:56;4.03;;;2.05;;
64387;SDS011;50709;52.648;4.764;2023-09-30T13:19:21;4.70;;;2.10;;
64387;SDS011;50709;52.648;4.764;2023-09-30T13:21:48;7.10;;;2.63;;
64387;SDS011;50709;52.648;4.764;2023-09-30T13:24:14;6.40;;;2.20;;
64387;SDS011;50709;52.648;4.764;2023-09-30T13:26:40;4.72;;;1.88;;
64387;SDS011;50709;52.648;4.764;2023-09-30T13:29:05;6.43;;;2.17;;
64387;SDS011;50709;52.648;4.764;2023-09-30T13:31:34;5.47;;;2.00;;
64387;SDS011;50709;52.648;4.764;2023-09-30T13:34:02;9.85;;;2.55;;
64387;SDS011;50709;52.648;4.764;2023-09-30T13:36:28;5.97;;;2.30;;
64387;SDS011;50709;52.648;4.764;2023-09-30T13:38:54;7.35;;;2.83;;
64387;SDS011;50709;52.648;4.764;2023-09-30T13:41:19;4.72;;;2.30;;
64387;SDS011;50709;52.648;4.764;2023-09-30T13:43:44;6.78;;;2.20;;
64387;SDS011;50709;52.648;4.764;2023-09-30T13:46:10;6.03;;;2.35;;
64387;SDS011;50709;52.648;4.764;2023-09-30T13:48:37;7.47;;;2.53;;
64387;SDS011;50709;52.648;4.764;2023-09-30T13:51:06;5.32;;;2.30;;
64387;SDS011;50709;52.648;4.764;2023-09-30T13:53:32;7.10;;;2.20;;
64387;SDS011;50709;52.648;4.764;2023-09-30T13:55:58;7.85;;;2.17;;
64387;SDS011;50709;52.648;4.764;2023-09-30T13:58:23;5.00;;;2.22;;
64387;SDS011;50709;52.648;4.764;2023-09-30T14:00:50;8.55;;;2.58;;
64387;SDS011;50709;52.648;4.764;2023-09-30T14:03:17;9.00;;;2.45;;
64387;SDS011;50709;52.648;4.764;2023-09-30T14:05:44;6.55;;;2.40;;
64387;SDS011;50709;52.648;4.764;2023-09-30T14:08:10;5.90;;;2.40;;
64387;SDS011;50709;52.648;4.764;2023-09-30T14:10:36;4.30;;;2.17;;
64387;SDS011;50709;52.648;4.764;2023-09-30T14:13:02;7.72;;;2.40;;
64387;SDS011;50709;52.648;4.764;2023-09-30T14:15:28;6.10;;;2.50;;
64387;SDS011;50709;52.648;4.764;2023-09-30T14:17:54;8.18;;;2.80;;
64387;SDS011;50709;52.648;4.764;2023-09-30T14:20:28;10.43;;;3.05;;
64387;SDS011;50709;52.648;4.764;2023-09-30T14:22:54;5.75;;;2.55;;
64387;SDS011;50709;52.648;4.764;2023-09-30T14:25:22;11.75;;;3.20;;
64387;SDS011;50709;52.648;4.764;2023-09-30T14:27:48;75.80;;;8.45;;
64387;SDS011;50709;52.648;4.764;2023-09-30T14:30:14;149.95;;;13.25;;
64387;SDS011;50709;52.648;4.764;2023-09-30T14:32:40;79.82;;;8.23;;
64387;SDS011;50709;52.648;4.764;2023-09-30T14:35:06;16.85;;;3.60;;
64387;SDS011;50709;52.648;4.764;2023-09-30T14:37:34;7.25;;;2.90;;
64387;SDS011;50709;52.648;4.764;2023-09-30T14:40:00;8.90;;;4.32;;
64387;SDS011;50709;52.648;4.764;2023-09-30T14:42:25;6.30;;;2.80;;
64387;SDS011;50709;52.648;4.764;2023-09-30T14:44:55;7.85;;;2.83;;
64387;SDS011;50709;52.648;4.764;2023-09-30T14:47:21;7.78;;;2.83;;
64387;SDS011;50709;52.648;4.764;2023-09-30T14:49:47;8.50;;;3.20;;
64387;SDS011;50709;52.648;4.764;2023-09-30T14:52:12;7.80;;;2.65;;
64387;SDS011;50709;52.648;4.764;2023-09-30T14:54:39;7.40;;;2.40;;
64387;SDS011;50709;52.648;4.764;2023-09-30T14:57:04;8.60;;;3.53;;
64387;SDS011;50709;52.648;4.764;2023-09-30T14:59:32;6.50;;;3.00;;
64387;SDS011;50709;52.648;4.764;2023-09-30T15:01:59;9.50;;;2.72;;
64387;SDS011;50709;52.648;4.764;2023-09-30T15:04:24;10.30;;;2.75;;
64387;SDS011;50709;52.648;4.764;2023-09-30T15:06:50;7.95;;;2.60;;
64387;SDS011;50709;52.648;4.764;2023-09-30T15:09:15;5.82;;;3.00;;
64387;SDS011;50709;52.648;4.764;2023-09-30T15:11:41;8.00;;;2.75;;
64387;SDS011;50709;52.648;4.764;2023-09-30T15:14:06;7.95;;;2.92;;
64387;SDS011;50709;52.648;4.764;2023-09-30T15:16:33;7.60;;;3.33;;